Time;durP1;ratioP1;P1;durP2;ratioP2;P2;SDS_P1;SDS_P2;PMS_P1;PMS_P2;Temp;Humidity;BMP_temperature;BMP_pressure;BME280_temperature;BME280_humidity;BME280_pressure;Samples;Min_cycle;Max_cycle;Signal;HPM_P1;HPM_P2
2023/11/17 08:56:47;;;;;;;6.60;5.73;;;;;;;11.63;62.75;99033.81;6739996;29;20211;-87
2023/11/17 09:05:15;;;;;;;11.33;7.27;;;;;;;11.77;62.90;99022.81;6714120;29;20232;-90
2023/11/17 09:09:04;;;;;;;7.70;6.87;;;;;;;10.87;63.26;98892.06;6713103;29;20285;-85
2023/11/17 09:16:55;;;;;;;10.80;7.30;;;;;;;11.69;62.87;99009.50;6682252;29;20232;-85
2023/11/17 09:25:10;;;;;;;;;;;;;;;;;;;;;
2023/11/17 09:32:48;;;;;;;7.17;6.03;;;;;;;11.47;61.73;98947.75;6682499;29;20223;-86
2023/11/17 09:36:10;;;;;;;7.70;6.37;;;;;;;11.80;62.06;99005.34;6724412;29;20227;-86
2023/11/17 09:39:32;;;;;;;7.40;6.57;;;;;;;11.97;61.70;99012.81;6767707;29;20232;-87
2023/11/17 09:42:57;;;;;;;5.27;4.77;;;;;;;11.75;60.57;98962.75;6748189;29;20199;-87
2023/11/17 09:46:20;;;;;;;7.47;6.10;;;;;;;12.01;61.31;99051.91;6733923;29;20215;-84
2023/11/17 09:49:44;;;;;;;8.00;6.80;;;;;;;11.82;62.32;99039.22;6735654;29;20228;-86
2023/11/17 09:53:24;;;;;;;6.77;5.80;;;;;;;11.83;61.30;98975.22;6734180;29;20302;-89
2023/11/17 09:56:55;;;;;;;9.27;6.27;;;;;;;11.96;62.12;99049.00;6735860;29;20243;-85
2023/11/17 10:00:41;;;;;;;8.37;6.60;;;;;;;12.08;61.46;99016.75;6709096;29;20362;-84
2023/11/17 10:04:07;;;;;;;9.23;6.83;;;;;;;12.34;61.72;99052.69;6707623;29;20251;-86
2023/11/17 10:08:23;;;;;;;8.87;7.07;;;;;;;11.50;62.30;98960.84;6735336;29;20248;-85
2023/11/17 10:20:03;;;;;;;9.27;7.40;;;;;;;12.46;62.05;99064.53;6738697;29;20232;-85
2023/11/17 10:23:25;;;;;;;8.97;6.77;;;;;;;11.84;61.20;98957.94;6734192;29;20684;-84
2023/11/17 10:26:47;;;;;;;9.27;6.63;;;;;;;12.21;60.63;98987.03;6761369;29;20299;-84
2023/11/17 10:30:10;;;;;;;7.70;6.93;;;;;;;12.66;60.65;99053.69;6757115;29;20243;-85
2023/11/17 10:33:35;;;;;;;9.27;7.20;;;;;;;12.78;60.38;99058.22;6751790;29;20207;-86
2023/11/17 10:36:57;;;;;;;9.20;6.70;;;;;;;12.20;61.47;99048.34;6738575;29;20215;-86
2023/11/17 10:40:24;;;;;;;5.30;4.80;;;;;;;11.94;61.81;99067.28;6747449;29;20287;-85
2023/11/17 10:43:50;;;;;;;5.63;5.07;;;;;;;12.33;61.78;99063.75;6745323;29;20222;-86
2023/11/17 10:47:17;;;;;;;5.43;4.90;;;;;;;12.32;61.47;99067.47;6751764;29;20219;-86
2023/11/17 10:50:42;;;;;;;5.70;4.70;;;;;;;12.29;61.34;99054.38;6745003;29;22403;-84
2023/11/17 10:54:04;;;;;;;4.93;4.43;;;;;;;12.37;60.88;99057.69;6733654;29;20208;-84
2023/11/17 10:57:41;;;;;;;6.30;5.10;;;;;;;12.11;61.39;99068.50;6735788;29;20224;-84
2023/11/17 11:01:21;;;;;;;6.57;5.27;;;;;;;12.32;61.50;99073.72;6726134;29;20723;-84
2023/11/17 11:05:06;;;;;;;7.50;5.90;;;;;;;12.09;61.43;99040.06;6733989;29;20220;-85
2023/11/17 11:08:32;;;;;;;6.07;5.00;;;;;;;11.35;61.54;98923.28;6736764;29;20300;-84
2023/11/17 11:12:09;;;;;;;7.83;5.20;;;;;;;12.25;61.25;99053.13;6733978;29;20236;-85
2023/11/17 11:15:31;;;;;;;6.13;5.27;;;;;;;12.40;61.21;99049.16;6736316;29;20223;-83
2023/11/17 11:22:17;;;;;;;8.57;6.73;;;;;;;12.22;61.03;99048.97;6725769;29;20221;-86
2023/11/17 11:25:41;;;;;;;16.50;8.73;;;;;;;12.55;61.74;99057.88;6708601;29;20594;-82
2023/11/17 11:29:09;;;;;;;12.10;6.57;;;;;;;12.51;62.43;99059.31;6716957;29;20232;-87
2023/11/17 11:32:51;;;;;;;7.20;5.10;;;;;;;11.73;60.78;98945.06;6734320;29;20219;-87
2023/11/17 11:44:09;;;;;;;5.47;4.00;;;;;;;12.02;60.89;99018.44;8059974;23;20251;-86
2023/11/17 16:42:12;;;;;;;6.53;4.83;;;;;;;12.55;61.33;99252.63;6733758;29;20229;-87
2023/11/17 16:45:35;;;;;;;8.20;5.63;;;;;;;12.57;60.63;99252.41;6735304;29;20233;-85
2023/11/17 16:48:59;;;;;;;6.70;6.10;;;;;;;12.21;60.34;99214.09;6736757;29;20298;-87
2023/11/17 16:52:38;;;;;;;7.13;6.30;;;;;;;12.49;60.85;99256.16;6731498;29;20236;-87
2023/11/17 16:56:00;;;;;;;6.33;5.73;;;;;;;12.54;60.52;99264.47;6726420;29;20605;-86
2023/11/17 16:59:23;;;;;;;9.00;7.80;;;;;;;12.55;60.59;99273.41;6738892;29;20292;-87
2023/11/17 17:02:44;;;;;;;9.13;8.10;;;;;;;12.18;60.01;99193.72;6739735;29;20683;-86
2023/11/17 17:06:12;;;;;;;11.60;10.43;;;;;;;11.71;61.41;99196.50;6740702;29;20232;-86
2023/11/17 17:09:34;;;;;;;9.87;8.70;;;;;;;12.05;61.56;99273.94;6742265;29;20291;-87
2023/11/17 17:13:12;;;;;;;9.73;8.07;;;;;;;12.14;60.61;99226.75;6739124;29;20207;-86
2023/11/17 17:16:41;;;;;;;9.80;8.10;;;;;;;11.20;61.02;99134.97;6731150;29;20220;-84
2023/11/17 17:20:06;;;;;;;8.40;7.00;;;;;;;11.40;60.84;99198.00;6733182;29;20228;-90
2023/11/17 17:23:35;;;;;;;8.17;6.97;;;;;;;11.88;60.76;99265.34;6735608;29;20216;-88
2023/11/17 17:26:56;;;;;;;9.63;6.77;;;;;;;11.73;59.80;99244.91;6740310;29;20236;-87
2023/11/17 17:30:19;;;;;;;7.37;6.67;;;;;;;11.45;59.67;99238.75;6718534;29;20221;-86
2023/11/17 17:33:41;;;;;;;7.47;6.10;;;;;;;11.30;59.90;99246.13;6743224;29;20289;-88
2023/11/17 17:37:17;;;;;;;6.90;6.20;;;;;;;11.35;59.85;99300.34;6745404;29;20227;-88
2023/11/17 17:40:46;;;;;;;8.83;6.00;;;;;;;11.19;60.81;99322.25;6747243;29;20234;-88
2023/11/17 17:51:58;;;;;;;12.20;9.40;;;;;;;11.07;59.78;99267.13;6719788;29;20225;-90
2023/11/17 17:55:24;;;;;;;14.90;11.47;;;;;;;10.77;60.76;99319.63;6739878;29;20219;-86
2023/11/17 17:58:51;;;;;;;153.40;86.87;;;;;;;10.58;62.91;99329.16;6742015;29;20203;-89
2023/11/17 18:02:12;;;;;;;25.63;18.37;;;;;;;10.22;63.19;99269.09;6690299;29;20867;-90
2023/11/17 18:05:34;;;;;;;12.17;10.30;;;;;;;10.37;62.02;99307.63;6729673;29;20225;-90
2023/11/17 18:08:57;;;;;;;12.23;10.63;;;;;;;10.42;62.05;99239.66;6745729;29;20254;-90
2023/11/17 18:12:19;;;;;;;13.67;11.00;;;;;;;10.55;61.88;99237.06;6734861;29;20785;-90
2023/11/17 18:15:42;;;;;;;12.53;9.93;;;;;;;10.31;61.71;99256.31;6740951;29;20212;-89
2023/11/17 18:19:06;;;;;;;12.00;10.30;;;;;;;10.77;63.11;99308.81;6741011;29;20255;-89
2023/11/17 18:22:28;;;;;;;16.67;9.30;;;;;;;11.46;62.30;99343.00;6721790;29;20208;-92
2023/11/17 18:34:57;;;;;;;14.50;9.57;;;;;;;10.37;61.24;99223.22;6534957;30;20279;-92
